Time;durP1;ratioP1;P1;durP2;ratioP2;P2;SDS_P1;SDS_P2;PMS_P1;PMS_P2;Temp;Humidity;BMP_temperature;BMP_pressure;BME280_temperature;BME280_humidity;BME280_pressure;Samples;Min_cycle;Max_cycle;Signal;HPM_P1;HPM_P2
2022/12/29 00:00:52;;;;;;;7.40;1.20;;;;;;;6.15;79.32;100031.09;103492;1303;22478;-59
2022/12/29 00:03:25;;;;;;;8.80;1.50;;;;;;;6.15;79.39;100029.34;103503;1307;22479;-62
2022/12/29 00:05:58;;;;;;;9.10;1.30;;;;;;;6.16;79.34;100030.83;103469;1306;22595;-58
2022/12/29 00:08:40;;;;;;;7.10;1.10;;;;;;;6.16;79.33;100033.11;103638;1282;24259;-58
2022/12/29 00:11:12;;;;;;;9.70;1.40;;;;;;;6.17;79.25;100025.86;103448;1306;25786;-59
2022/12/29 00:16:35;;;;;;;6.50;1.30;;;;;;;6.19;79.12;100029.48;103478;1306;22600;-59
2022/12/29 00:35:07;;;;;;;8.20;1.40;;;;;;;6.20;79.26;100022.41;103701;1282;22464;-58
2022/12/29 00:36:09;;;;;;;4.50;0.90;;;;;;;6.32;78.81;100003.65;103513;1305;22469;-56
2022/12/29 00:44:25;;;;;;;4.80;1.40;;;;;;;6.37;78.75;99995.38;103420;1282;24316;-58
2022/12/29 00:46:56;;;;;;;10.00;1.10;;;;;;;6.38;78.56;99984.63;103466;1307;23930;-58
2022/12/29 00:49:32;;;;;;;4.40;0.90;;;;;;;6.40;78.63;99983.04;103462;1282;22479;-60
2022/12/29 00:52:06;;;;;;;7.60;1.20;;;;;;;6.42;78.79;99973.95;103551;1306;25606;-56
2022/12/29 00:54:39;;;;;;;5.90;1.20;;;;;;;6.41;78.45;99973.39;103508;1306;25320;-58
2022/12/29 00:57:11;;;;;;;5.60;1.00;;;;;;;6.42;78.53;99969.89;103517;1304;23376;-58
2022/12/29 00:59:45;;;;;;;5.00;1.10;;;;;;;6.43;78.58;99958.61;103489;1293;25273;-58
2022/12/29 01:02:15;;;;;;;8.00;0.90;;;;;;;6.43;78.45;99964.98;103525;1281;22452;-58
2022/12/29 01:04:46;;;;;;;6.40;0.90;;;;;;;6.41;78.42;99967.77;103493;1306;22457;-59
2022/12/29 01:07:17;;;;;;;6.10;1.00;;;;;;;6.40;78.38;99963.79;103533;1289;22945;-58
2022/12/29 01:16:01;;;;;;;4.90;1.20;;;;;;;6.38;78.40;99949.48;103457;1292;22479;-57
2022/12/29 01:18:32;;;;;;;6.40;0.90;;;;;;;6.37;78.39;99952.69;103751;1282;22515;-57
2022/12/29 01:21:06;;;;;;;5.70;1.00;;;;;;;6.35;78.31;99948.73;103716;1281;24365;-57
2022/12/29 01:23:38;;;;;;;5.10;1.00;;;;;;;6.33;78.31;99947.98;103657;1282;25274;-57
2022/12/29 01:26:16;;;;;;;4.90;1.00;;;;;;;6.32;78.50;99953.03;103563;1291;22494;-56
2022/12/29 01:28:47;;;;;;;6.60;0.80;;;;;;;6.31;78.44;99949.77;103558;1282;22693;-58
2022/12/29 01:31:19;;;;;;;7.00;1.00;;;;;;;6.28;78.37;99957.31;103533;1298;23703;-58
2022/12/29 01:33:50;;;;;;;5.00;0.90;;;;;;;6.27;78.47;99952.44;103583;1306;23144;-59
2022/12/29 01:36:21;;;;;;;5.20;1.00;;;;;;;6.26;78.50;99942.11;103701;1283;23862;-58
2022/12/29 01:38:53;;;;;;;5.20;0.90;;;;;;;6.23;78.49;99937.17;103487;1305;22476;-58
2022/12/29 01:41:24;;;;;;;7.10;1.20;;;;;;;6.21;78.60;99937.48;103563;1281;22465;-59
2022/12/29 01:43:58;;;;;;;4.50;1.00;;;;;;;6.19;78.52;99939.68;103451;1292;24382;-58
2022/12/29 01:46:35;;;;;;;4.80;1.00;;;;;;;6.18;78.55;99933.48;103605;1282;22463;-57
2022/12/29 01:49:13;;;;;;;7.60;1.20;;;;;;;6.17;78.54;99931.53;103521;1306;22474;-59
2022/12/29 01:51:50;;;;;;;7.50;1.50;;;;;;;6.15;78.49;99927.89;103669;1282;22709;-58
2022/12/29 01:54:26;;;;;;;5.50;1.20;;;;;;;6.14;78.44;99932.16;104402;1282;22736;-59
2022/12/29 01:57:00;;;;;;;7.00;1.20;;;;;;;6.12;78.42;99929.28;103515;1298;22536;-58
2022/12/29 01:59:35;;;;;;;5.90;1.30;;;;;;;6.11;78.42;99924.98;103740;1282;25467;-54
2022/12/29 02:02:08;;;;;;;6.50;1.10;;;;;;;6.09;78.59;99918.30;103520;1305;22509;-59
2022/12/29 02:04:44;;;;;;;6.50;1.30;;;;;;;6.09;78.50;99920.70;103560;1281;25350;-57
2022/12/29 02:07:18;;;;;;;2.50;0.70;;;;;;;6.09;78.60;99911.92;103506;1282;22407;-57
2022/12/29 02:09:53;;;;;;;4.70;1.10;;;;;;;6.08;78.67;99897.61;103504;1301;22709;-56
2022/12/29 02:12:26;;;;;;;6.60;1.10;;;;;;;6.08;78.81;99896.52;103692;1281;25565;-58
2022/12/29 02:15:01;;;;;;;5.90;1.00;;;;;;;6.09;78.82;99901.14;103532;1306;27684;-56
2022/12/29 02:17:49;;;;;;;5.70;1.00;;;;;;;6.08;78.69;99899.38;103400;1282;22468;-57
2022/12/29 02:20:56;;;;;;;2.80;0.70;;;;;;;6.09;78.69;99902.10;103518;1281;25386;-57
2022/12/29 02:23:56;;;;;;;5.30;0.80;;;;;;;6.08;78.81;99897.61;103488;1306;26657;-60
2022/12/29 02:26:49;;;;;;;10.60;1.30;;;;;;;6.08;78.81;99901.73;103504;1282;22587;-60
2022/12/29 02:29:51;;;;;;;5.00;0.80;;;;;;;6.08;78.65;99897.80;103507;1282;24320;-57
2022/12/29 02:32:32;;;;;;;6.00;0.90;;;;;;;6.08;78.55;99899.47;103511;1304;25359;-58
2022/12/29 02:35:10;;;;;;;9.30;2.50;;;;;;;6.07;78.40;99894.80;103592;1306;22593;-56
2022/12/29 02:37:51;;;;;;;4.00;0.80;;;;;;;6.06;78.22;99891.69;103499;1274;22789;-60
2022/12/29 02:40:28;;;;;;;4.10;0.60;;;;;;;6.06;78.33;99893.91;103550;1306;25393;-55
2022/12/29 02:43:05;;;;;;;4.00;0.70;;;;;;;6.06;78.41;99895.73;103430;1306;22759;-58
2022/12/29 02:45:46;;;;;;;7.40;0.90;;;;;;;6.06;78.32;99898.75;103554;1306;25515;-57
2022/12/29 02:48:25;;;;;;;5.30;1.10;;;;;;;6.05;78.26;99895.69;103437;1281;22464;-57
2022/12/29 02:51:03;;;;;;;6.00;0.90;;;;;;;6.04;78.22;99892.33;103427;1305;22943;-58
2022/12/29 02:56:26;;;;;;;2.70;0.70;;;;;;;6.01;78.37;99880.56;103477;1275;24185;-58
2022/12/29 02:58:57;;;;;;;6.20;1.00;;;;;;;5.99;78.05;99877.08;103448;1306;24329;-58
2022/12/29 03:02:16;;;;;;;4.10;0.70;;;;;;;5.99;78.11;99877.56;103509;1306;24217;-57
2022/12/29 03:04:52;;;;;;;6.70;0.90;;;;;;;5.97;78.26;99880.98;103386;1305;25573;-56
2022/12/29 03:07:31;;;;;;;6.00;0.90;;;;;;;5.97;78.22;99877.64;102615;1306;25258;-56
2022/12/29 03:10:13;;;;;;;4.30;0.70;;;;;;;5.98;78.05;99871.60;103487;1306;22470;-58
2022/12/29 03:16:04;;;;;;;3.20;1.00;;;;;;;5.99;78.12;99869.47;103582;1306;24280;-57
2022/12/29 03:18:45;;;;;;;5.70;1.10;;;;;;;6.00;78.00;99866.91;103359;1275;22472;-58
2022/12/29 03:22:26;;;;;;;4.20;0.90;;;;;;;6.01;77.93;99858.72;103235;1275;24264;-56
2022/12/29 03:24:16;;;;;;;5.40;0.90;;;;;;;6.02;77.78;99856.55;103451;1306;22798;-58
2022/12/29 03:26:48;;;;;;;4.10;0.80;;;;;;;6.03;77.65;99852.85;103591;1281;22470;-57
2022/12/29 03:29:21;;;;;;;5.90;0.80;;;;;;;6.04;77.63;99850.27;103635;1305;25395;-59
2022/12/29 03:31:55;;;;;;;5.70;0.90;;;;;;;6.06;77.68;99847.96;103397;1287;22473;-58
2022/12/29 03:34:27;;;;;;;5.00;0.90;;;;;;;6.07;77.64;99847.85;103582;1305;23877;-57
2022/12/29 03:37:03;;;;;;;5.40;0.60;;;;;;;6.09;77.62;99850.96;103598;1306;22931;-58
2022/12/29 03:39:35;;;;;;;4.40;1.00;;;;;;;6.10;77.52;99865.08;103565;1288;25283;-57
2022/12/29 03:42:11;;;;;;;6.20;1.10;;;;;;;6.11;77.46;99865.11;103431;1282;22477;-59
2022/12/29 03:44:44;;;;;;;3.50;0.70;;;;;;;6.13;77.49;99866.70;103460;1282;22487;-57
2022/12/29 03:47:16;;;;;;;4.10;0.90;;;;;;;6.15;77.94;99862.19;103515;1282;22483;-58
2022/12/29 03:49:47;;;;;;;5.20;1.00;;;;;;;6.15;77.97;99856.23;103553;1281;25245;-59
2022/12/29 03:52:19;;;;;;;5.80;1.00;;;;;;;6.16;78.02;99855.57;103479;1305;24249;-59
2022/12/29 03:54:50;;;;;;;3.90;0.90;;;;;;;6.16;78.12;99860.77;103490;1306;25924;-57
2022/12/29 03:57:21;;;;;;;4.70;0.90;;;;;;;6.15;78.00;99856.62;103334;1281;25699;-57
2022/12/29 03:59:51;;;;;;;6.10;1.30;;;;;;;6.15;77.95;99863.11;104178;1306;22551;-59
2022/12/29 04:02:23;;;;;;;9.70;0.90;;;;;;;6.15;77.57;99865.27;103541;1304;24298;-58
2022/12/29 04:04:54;;;;;;;4.80;0.80;;;;;;;6.16;77.88;99859.11;103353;1282;22471;-58
2022/12/29 04:07:25;;;;;;;5.90;1.00;;;;;;;6.16;77.78;99851.14;103535;1282;22476;-56
2022/12/29 04:09:56;;;;;;;7.50;0.90;;;;;;;6.16;77.55;99851.36;103452;1304;22570;-57
2022/12/29 04:12:27;;;;;;;5.60;0.90;;;;;;;6.16;77.41;99847.86;103416;1306;22444;-57
2022/12/29 04:14:58;;;;;;;4.30;1.00;;;;;;;6.17;77.30;99841.74;103374;1282;22467;-58
2022/12/29 04:17:29;;;;;;;6.70;1.10;;;;;;;6.17;77.40;99838.11;103456;1289;22462;-56
2022/12/29 04:22:45;;;;;;;3.80;1.00;;;;;;;6.18;77.34;99835.93;103441;1306;24297;-58
2022/12/29 04:25:16;;;;;;;5.50;1.10;;;;;;;6.18;77.10;99841.55;103503;1275;22426;-56
2022/12/29 04:27:47;;;;;;;6.90;1.20;;;;;;;6.18;76.95;99839.34;103466;1304;24273;-58
2022/12/29 04:30:18;;;;;;;5.10;1.20;;;;;;;6.19;76.98;99839.46;103490;1304;22492;-56
2022/12/29 04:32:49;;;;;;;7.90;1.10;;;;;;;6.19;76.93;99835.73;103509;1282;22448;-58
2022/12/29 04:35:20;;;;;;;4.40;1.00;;;;;;;6.19;76.98;99828.04;103586;1305;24385;-64
2022/12/29 04:37:51;;;;;;;4.60;1.00;;;;;;;6.19;77.00;99820.28;103508;1282;22473;-57
2022/12/29 04:40:23;;;;;;;6.70;1.00;;;;;;;6.19;76.67;99817.41;103494;1289;22940;-58
2022/12/29 04:42:54;;;;;;;6.90;1.10;;;;;;;6.20;76.83;99810.42;103482;1306;22524;-58
2022/12/29 04:45:24;;;;;;;5.70;0.90;;;;;;;6.21;76.68;99809.20;103504;1306;22771;-58
2022/12/29 04:47:55;;;;;;;3.40;0.70;;;;;;;6.21;76.56;99815.76;103350;1304;22525;-58
2022/12/29 04:50:26;;;;;;;6.60;1.10;;;;;;;6.21;76.46;99816.95;103524;1298;22467;-58
2022/12/29 04:52:57;;;;;;;5.00;0.90;;;;;;;6.21;76.51;99822.10;103450;1282;22476;-60
2022/12/29 04:55:28;;;;;;;5.20;1.00;;;;;;;6.21;76.57;99820.50;103471;1304;26364;-59
2022/12/29 04:57:59;;;;;;;4.40;0.80;;;;;;;6.20;76.60;99819.92;103556;1298;22462;-58
2022/12/29 05:00:30;;;;;;;3.70;1.00;;;;;;;6.20;76.55;99812.41;103444;1306;22479;-57
2022/12/29 05:03:01;;;;;;;4.80;1.10;;;;;;;6.19;76.48;99813.94;103438;1306;24266;-57
2022/12/29 05:05:33;;;;;;;8.50;1.30;;;;;;;6.20;76.52;99812.41;103374;1282;22466;-57
2022/12/29 05:08:04;;;;;;;6.00;1.20;;;;;;;6.20;76.71;99813.11;103334;1300;22613;-57
2022/12/29 05:10:35;;;;;;;5.40;1.30;;;;;;;6.20;76.45;99808.99;103504;1282;22484;-55
2022/12/29 05:13:06;;;;;;;7.90;1.20;;;;;;;6.20;76.58;99809.14;103515;1292;22493;-59
2022/12/29 05:15:37;;;;;;;5.50;1.00;;;;;;;6.21;76.49;99805.33;103508;1306;24324;-60
2022/12/29 05:21:32;;;;;;;6.00;1.00;;;;;;;6.22;76.37;99796.54;103620;1289;22474;-59
2022/12/29 05:24:04;;;;;;;4.70;1.00;;;;;;;6.23;76.39;99793.95;103592;1291;22454;-55
2022/12/29 05:26:35;;;;;;;6.90;1.50;;;;;;;6.24;76.29;99793.45;103585;1306;24855;-60
2022/12/29 05:29:06;;;;;;;6.70;1.10;;;;;;;6.26;76.30;99791.01;103589;1282;22449;-58
2022/12/29 05:31:38;;;;;;;6.50;1.20;;;;;;;6.26;76.22;99789.10;103528;1306;22473;-58
2022/12/29 05:34:10;;;;;;;6.70;1.20;;;;;;;6.28;76.14;99787.52;103434;1282;22466;-59
2022/12/29 05:36:41;;;;;;;6.70;1.40;;;;;;;6.29;76.38;99782.64;103485;1306;25614;-60
2022/12/29 05:39:13;;;;;;;6.40;1.00;;;;;;;6.30;76.22;99784.08;103413;1306;24344;-58
2022/12/29 05:41:43;;;;;;;8.90;1.70;;;;;;;6.31;76.25;99781.34;103515;1274;22483;-57
2022/12/29 05:44:15;;;;;;;10.90;1.50;;;;;;;6.33;76.05;99778.10;103444;1305;22483;-60
2022/12/29 05:46:46;;;;;;;6.20;1.30;;;;;;;6.34;76.05;99772.52;103574;1282;22718;-58
2022/12/29 05:49:17;;;;;;;5.20;1.30;;;;;;;6.33;75.86;99773.21;103456;1280;24359;-59
2022/12/29 05:55:18;;;;;;;6.30;1.30;;;;;;;6.30;75.46;99770.00;103381;1306;22525;-57
2022/12/29 05:57:50;;;;;;;6.20;1.30;;;;;;;6.29;75.44;99767.20;103578;1291;24266;-61
2022/12/29 06:00:22;;;;;;;14.00;1.70;;;;;;;6.27;75.28;99764.33;103706;1282;22474;-60
2022/12/29 06:02:53;;;;;;;6.30;1.30;;;;;;;6.27;75.06;99769.88;103712;1282;22517;-58
2022/12/29 06:05:25;;;;;;;9.40;1.30;;;;;;;6.27;74.99;99766.70;104229;1305;22515;-60
2022/12/29 06:07:56;;;;;;;6.70;1.40;;;;;;;6.29;74.83;99766.27;104445;1296;22827;-61
2022/12/29 06:10:28;;;;;;;5.90;1.40;;;;;;;6.30;74.92;99763.73;103625;1304;25419;-60
2022/12/29 06:12:59;;;;;;;7.60;2.10;;;;;;;6.32;74.77;99766.02;103486;1305;22511;-61
2022/12/29 06:15:30;;;;;;;10.00;1.70;;;;;;;6.33;74.91;99768.17;103864;1281;22474;-62
2022/12/29 06:18:02;;;;;;;10.70;1.80;;;;;;;6.33;74.68;99760.48;103455;1306;25434;-62
2022/12/29 06:20:33;;;;;;;7.80;1.50;;;;;;;6.34;74.70;99762.37;103304;1275;25229;-64
2022/12/29 06:23:05;;;;;;;10.00;2.00;;;;;;;6.34;74.37;99759.84;103239;1282;25281;-67
2022/12/29 06:25:36;;;;;;;11.60;2.50;;;;;;;6.33;74.46;99764.70;103441;1289;22443;-68
2022/12/29 06:28:08;;;;;;;12.80;2.10;;;;;;;6.33;74.66;99766.21;103561;1275;23816;-59
2022/12/29 06:30:40;;;;;;;11.20;2.10;;;;;;;6.33;74.79;99768.98;103716;1298;24257;-60
2022/12/29 06:33:11;;;;;;;11.80;2.00;;;;;;;6.33;74.63;99768.83;103531;1306;22463;-59
2022/12/29 06:35:43;;;;;;;8.40;1.90;;;;;;;6.32;74.53;99765.54;105347;1282;24264;-60
2022/12/29 06:38:14;;;;;;;11.00;2.20;;;;;;;6.33;74.57;99761.56;105827;1287;23641;-60
2022/12/29 06:40:46;;;;;;;8.80;1.80;;;;;;;6.33;74.56;99759.16;104159;1275;22514;-60
2022/12/29 06:43:17;;;;;;;9.50;1.50;;;;;;;6.33;74.62;99757.25;103522;1284;22462;-59
2022/12/29 06:45:49;;;;;;;6.80;1.60;;;;;;;6.33;74.55;99761.14;103639;1306;24330;-59
2022/12/29 06:48:20;;;;;;;8.10;1.40;;;;;;;6.34;74.50;99770.98;103594;1274;24362;-59
2022/12/29 06:50:51;;;;;;;10.80;2.00;;;;;;;6.36;74.30;99773.14;103556;1282;22585;-62
2022/12/29 06:53:22;;;;;;;8.50;1.70;;;;;;;6.37;74.22;99773.33;103556;1305;23096;-61
2022/12/29 06:55:54;;;;;;;8.20;2.00;;;;;;;6.38;74.08;99774.92;103558;1274;22468;-59
2022/12/29 06:58:25;;;;;;;7.50;1.70;;;;;;;6.41;74.09;99773.33;103665;1298;22474;-61
2022/12/29 07:00:57;;;;;;;10.50;1.90;;;;;;;6.42;73.88;99778.98;103613;1288;22518;-62
2022/12/29 07:03:28;;;;;;;13.70;2.30;;;;;;;6.43;73.94;99776.92;103744;1288;24287;-59
2022/12/29 07:05:59;;;;;;;8.80;2.30;;;;;;;6.45;74.11;99772.44;103725;1274;22422;-61
2022/12/29 07:08:31;;;;;;;10.20;1.90;;;;;;;6.45;73.74;99774.73;103595;1289;22776;-59
2022/12/29 07:11:02;;;;;;;10.90;1.70;;;;;;;6.46;73.75;99775.65;103721;1274;22460;-59
2022/12/29 07:13:33;;;;;;;10.60;2.40;;;;;;;6.47;73.94;99776.45;103631;1281;22595;-59
2022/12/29 07:16:10;;;;;;;10.10;2.10;;;;;;;6.48;73.85;99776.52;103719;1306;22510;-59
2022/12/29 07:18:41;;;;;;;11.30;2.10;;;;;;;6.48;73.69;99779.18;103516;1306;22469;-60
2022/12/29 07:21:12;;;;;;;9.30;2.20;;;;;;;6.49;73.84;99781.63;103614;1282;22471;-60
2022/12/29 07:23:43;;;;;;;9.20;1.90;;;;;;;6.49;73.83;99783.81;103575;1282;22460;-60
2022/12/29 07:26:18;;;;;;;11.10;1.90;;;;;;;6.49;74.14;99783.41;103547;1282;25463;-60
2022/12/29 07:28:49;;;;;;;7.30;2.00;;;;;;;6.51;74.03;99790.09;103334;1306;24257;-58
2022/12/29 07:31:22;;;;;;;10.70;2.10;;;;;;;6.51;73.85;99783.10;103652;1298;22478;-61
2022/12/29 07:33:54;;;;;;;8.80;2.10;;;;;;;6.51;74.01;99777.01;103616;1306;22501;-60
2022/12/29 07:36:25;;;;;;;9.70;1.70;;;;;;;6.51;74.02;99780.63;103534;1303;22464;-61
2022/12/29 07:38:56;;;;;;;8.10;2.00;;;;;;;6.52;74.06;99777.02;103506;1306;24968;-61
2022/12/29 07:41:27;;;;;;;10.10;1.70;;;;;;;6.53;73.93;99779.06;103620;1306;22477;-61
2022/12/29 07:43:59;;;;;;;9.00;2.30;;;;;;;6.55;73.80;99780.02;103713;1306;24289;-61
2022/12/29 07:46:30;;;;;;;9.10;2.20;;;;;;;6.56;73.87;99781.52;103702;1304;22876;-60
2022/12/29 07:49:02;;;;;;;20.10;2.20;;;;;;;6.58;73.85;99781.86;103679;1306;22467;-60
2022/12/29 07:51:34;;;;;;;12.40;2.70;;;;;;;6.60;73.83;99776.48;103712;1283;22468;-60
2022/12/29 07:54:05;;;;;;;10.30;2.20;;;;;;;6.62;73.60;99775.41;103608;1282;25403;-61
2022/12/29 07:56:37;;;;;;;14.10;2.60;;;;;;;6.64;73.66;99777.55;103605;1282;22480;-60
2022/12/29 07:59:08;;;;;;;12.60;2.70;;;;;;;6.65;73.93;99777.73;103609;1306;22473;-59
2022/12/29 08:01:39;;;;;;;14.50;2.90;;;;;;;6.67;73.72;99778.94;103740;1282;25420;-61
2022/12/29 08:04:10;;;;;;;11.50;1.80;;;;;;;6.69;73.64;99780.91;103652;1305;25229;-59
2022/12/29 08:06:41;;;;;;;12.70;2.40;;;;;;;6.71;73.74;99785.72;103650;1298;26516;-60
2022/12/29 08:09:12;;;;;;;11.80;2.60;;;;;;;6.73;74.00;99783.70;103724;1282;25280;-60
2022/12/29 08:11:43;;;;;;;8.80;2.10;;;;;;;6.75;74.09;99785.83;103682;1283;22428;-62
2022/12/29 08:14:15;;;;;;;14.40;2.50;;;;;;;6.77;74.13;99784.65;104450;1281;24238;-60
2022/12/29 08:16:46;;;;;;;8.30;2.20;;;;;;;6.79;74.02;99785.12;103698;1290;24371;-61
2022/12/29 08:19:16;;;;;;;14.30;3.20;;;;;;;6.81;73.91;99787.17;103506;1282;22809;-59
2022/12/29 08:21:47;;;;;;;11.70;2.00;;;;;;;6.85;74.14;99791.89;103611;1306;24259;-61
2022/12/29 08:24:18;;;;;;;8.90;1.90;;;;;;;6.89;74.05;99788.31;103582;1298;24376;-60
2022/12/29 08:26:49;;;;;;;13.10;2.10;;;;;;;6.94;73.98;99784.83;103691;1306;24316;-62
2022/12/29 08:29:21;;;;;;;9.10;1.50;;;;;;;6.99;74.07;99785.34;103597;1298;22470;-60
2022/12/29 08:31:52;;;;;;;7.20;1.50;;;;;;;7.03;73.99;99791.05;103590;1279;25334;-61
2022/12/29 08:34:23;;;;;;;10.90;1.90;;;;;;;7.08;73.96;99794.90;103530;1282;22465;-61
2022/12/29 08:36:54;;;;;;;7.50;1.50;;;;;;;7.13;73.77;99798.57;103543;1284;24341;-59
2022/12/29 08:39:25;;;;;;;7.40;1.50;;;;;;;7.18;73.74;99800.77;103642;1305;25382;-61
2022/12/29 08:41:56;;;;;;;8.90;1.60;;;;;;;7.24;73.72;99797.89;103529;1279;22511;-59
2022/12/29 08:44:27;;;;;;;6.80;1.50;;;;;;;7.29;73.57;99793.59;103600;1306;22903;-60
2022/12/29 08:46:58;;;;;;;9.70;2.10;;;;;;;7.34;73.38;99794.64;103673;1290;22450;-65
2022/12/29 08:49:29;;;;;;;9.50;1.70;;;;;;;7.39;73.38;99788.70;103540;1288;25366;-61
2022/12/29 08:52:00;;;;;;;10.00;2.20;;;;;;;7.43;73.25;99785.80;103456;1274;22952;-61
2022/12/29 08:54:31;;;;;;;9.60;1.70;;;;;;;7.48;73.07;99788.04;103500;1282;22512;-60
2022/12/29 08:57:02;;;;;;;11.60;1.90;;;;;;;7.52;72.86;99794.44;103535;1283;22738;-60
2022/12/29 08:59:33;;;;;;;10.80;1.80;;;;;;;7.56;72.94;99803.22;103506;1306;25102;-62
2022/12/29 09:02:04;;;;;;;8.90;1.80;;;;;;;7.60;72.82;99802.29;103556;1305;24257;-62
2022/12/29 09:04:36;;;;;;;8.70;2.00;;;;;;;7.63;72.94;99808.40;103648;1298;24266;-62
2022/12/29 09:07:07;;;;;;;9.00;1.60;;;;;;;7.67;73.04;99807.20;103608;1305;24208;-61
2022/12/29 09:09:38;;;;;;;10.60;1.70;;;;;;;7.69;72.51;99807.02;103625;1306;23165;-60
2022/12/29 09:12:09;;;;;;;8.70;1.70;;;;;;;7.71;72.53;99806.76;103605;1282;22476;-62
2022/12/29 09:14:39;;;;;;;6.50;1.40;;;;;;;7.74;72.58;99812.83;103408;1274;22634;-62
2022/12/29 09:19:59;;;;;;;9.50;2.00;;;;;;;7.79;72.54;99815.02;103354;1282;24330;-62
2022/12/29 09:22:30;;;;;;;9.70;1.90;;;;;;;7.80;72.33;99813.28;103598;1275;24299;-64
2022/12/29 09:25:01;;;;;;;8.60;1.80;;;;;;;7.82;72.27;99807.16;103546;1306;22904;-61
2022/12/29 09:27:32;;;;;;;7.80;1.60;;;;;;;7.85;72.35;99796.06;102723;1282;22589;-63
2022/12/29 09:30:05;;;;;;;7.30;1.60;;;;;;;7.88;72.23;99798.30;103208;1274;22465;-60
2022/12/29 09:32:36;;;;;;;6.70;1.70;;;;;;;7.90;72.42;99797.48;103857;1282;24255;-61
2022/12/29 09:35:08;;;;;;;11.60;1.90;;;;;;;7.92;71.97;99802.70;102996;1281;22491;-60
2022/12/29 09:37:40;;;;;;;10.30;2.30;;;;;;;7.95;71.95;99800.83;103039;1281;25305;-60
2022/12/29 09:40:25;;;;;;;8.70;1.90;;;;;;;7.98;72.13;99801.00;102898;1305;22544;-59
2022/12/29 09:43:18;;;;;;;10.40;2.00;;;;;;;8.00;72.08;99806.77;103517;1282;22507;-59
2022/12/29 09:45:59;;;;;;;12.00;1.80;;;;;;;8.03;72.00;99804.10;103158;1281;22466;-58
2022/12/29 09:48:34;;;;;;;10.20;1.60;;;;;;;8.06;72.20;99799.38;103192;1282;22467;-58
2022/12/29 09:51:11;;;;;;;9.80;1.80;;;;;;;8.11;72.16;99797.00;103009;1281;22466;-59
2022/12/29 09:53:46;;;;;;;10.70;1.90;;;;;;;8.14;72.13;99795.15;103463;1282;22598;-57
2022/12/29 09:56:23;;;;;;;6.80;1.30;;;;;;;8.20;72.21;99793.85;102995;1281;24443;-57
2022/12/29 09:58:59;;;;;;;7.40;1.40;;;;;;;8.24;71.84;99793.36;102998;1275;24369;-59
2022/12/29 10:01:35;;;;;;;10.50;1.80;;;;;;;8.28;71.81;99784.69;103136;1275;25345;-60
2022/12/29 10:04:07;;;;;;;9.00;1.70;;;;;;;8.32;71.68;99778.73;103079;1300;23049;-58
2022/12/29 10:06:43;;;;;;;7.40;1.60;;;;;;;8.37;71.74;99775.06;103265;1282;22470;-58
2022/12/29 10:09:20;;;;;;;7.50;1.40;;;;;;;8.41;71.60;99772.08;103121;1306;22648;-58
2022/12/29 10:12:03;;;;;;;7.60;1.60;;;;;;;8.46;71.71;99769.13;103175;1297;24347;-57
2022/12/29 10:14:55;;;;;;;10.10;1.90;;;;;;;8.50;71.72;99762.64;102965;1281;22461;-59
2022/12/29 10:17:33;;;;;;;11.00;2.00;;;;;;;8.56;71.59;99764.02;103185;1282;24347;-58
2022/12/29 10:20:26;;;;;;;7.50;1.50;;;;;;;8.60;71.65;99759.15;103263;1282;24333;-57
2022/12/29 10:23:25;;;;;;;11.30;1.40;;;;;;;8.66;71.64;99762.99;103591;1297;22486;-60
2022/12/29 10:25:58;;;;;;;9.50;1.30;;;;;;;8.71;71.62;99751.00;103065;1298;22552;-59
2022/12/29 10:28:40;;;;;;;9.60;1.50;;;;;;;8.76;71.84;99756.10;103348;1275;23295;-59
2022/12/29 10:31:19;;;;;;;6.30;1.40;;;;;;;8.80;71.66;99758.71;103015;1281;22468;-58
2022/12/29 10:33:54;;;;;;;9.40;1.50;;;;;;;8.85;71.51;99758.39;103153;1299;24346;-59
2022/12/29 10:36:31;;;;;;;8.00;1.40;;;;;;;8.89;71.45;99754.82;103623;1274;25531;-59
2022/12/29 10:39:11;;;;;;;9.40;1.70;;;;;;;8.94;71.29;99753.84;103249;1306;25521;-61
2022/12/29 10:41:47;;;;;;;5.30;1.10;;;;;;;8.98;71.30;99751.70;103545;1306;22485;-59
2022/12/29 10:44:21;;;;;;;6.10;1.30;;;;;;;9.03;71.63;99744.27;103179;1282;25574;-58
2022/12/29 10:46:56;;;;;;;7.50;1.80;;;;;;;9.06;71.59;99745.14;103091;1290;22471;-59
2022/12/29 10:49:29;;;;;;;6.70;1.60;;;;;;;9.09;71.46;99750.55;103124;1305;22462;-57
2022/12/29 10:52:07;;;;;;;11.10;1.60;;;;;;;9.11;71.12;99749.48;103132;1306;22480;-59
2022/12/29 10:54:47;;;;;;;8.80;2.20;;;;;;;9.12;71.23;99748.92;103166;1306;22519;-59
2022/12/29 10:57:26;;;;;;;13.20;2.30;;;;;;;9.11;70.99;99744.86;103199;1291;22546;-58
2022/12/29 10:59:58;;;;;;;10.00;2.00;;;;;;;9.11;70.89;99743.35;103803;1292;24439;-59
2022/12/29 11:03:14;;;;;;;9.50;2.10;;;;;;;9.11;71.05;99746.85;103508;1281;24346;-59
2022/12/29 11:05:51;;;;;;;9.30;1.70;;;;;;;9.12;70.88;99740.23;102506;1281;25281;-56
2022/12/29 11:08:26;;;;;;;8.70;2.00;;;;;;;9.12;70.92;99740.83;102817;1310;26518;-59
2022/12/29 11:11:04;;;;;;;9.70;1.70;;;;;;;9.14;70.74;99746.23;102687;1288;24370;-61
2022/12/29 11:13:47;;;;;;;7.10;1.30;;;;;;;9.16;70.62;99740.86;102604;1288;24438;-59
2022/12/29 11:16:31;;;;;;;12.00;1.50;;;;;;;9.19;70.18;99739.77;102535;1290;22516;-57
2022/12/29 11:19:03;;;;;;;6.50;1.30;;;;;;;9.21;70.13;99728.98;102778;1286;26879;-58
2022/12/29 11:21:40;;;;;;;7.10;1.30;;;;;;;9.22;69.71;99728.05;102704;1279;22493;-61
2022/12/29 11:24:23;;;;;;;6.70;1.80;;;;;;;9.24;69.91;99729.44;102952;1284;22473;-57
2022/12/29 11:26:57;;;;;;;7.40;1.50;;;;;;;9.26;69.67;99728.55;102612;1309;22477;-58
2022/12/29 11:29:37;;;;;;;7.30;1.20;;;;;;;9.28;69.69;99722.77;102676;1287;22706;-59
2022/12/29 11:32:19;;;;;;;7.20;1.50;;;;;;;9.31;69.70;99724.03;102787;1288;24562;-62
2022/12/29 11:34:50;;;;;;;6.20;1.40;;;;;;;9.34;69.80;99722.20;102779;1312;22481;-59
2022/12/29 11:37:26;;;;;;;7.00;1.50;;;;;;;9.36;69.77;99719.45;102728;1310;22468;-57
2022/12/29 11:40:01;;;;;;;10.70;1.60;;;;;;;9.38;69.78;99718.46;102789;1312;22459;-59
2022/12/29 11:42:37;;;;;;;9.90;1.70;;;;;;;9.39;70.05;99719.81;103323;1294;22468;-59
2022/12/29 11:45:17;;;;;;;7.90;1.80;;;;;;;9.41;69.98;99716.29;103311;1298;23776;-59
2022/12/29 11:47:53;;;;;;;7.00;1.60;;;;;;;9.42;70.21;99711.54;103135;1297;25448;-59
2022/12/29 11:50:29;;;;;;;8.60;1.80;;;;;;;9.43;69.92;99707.26;102998;1274;22561;-57
2022/12/29 11:53:06;;;;;;;8.90;1.80;;;;;;;9.45;70.21;99708.84;103140;1289;22695;-58
2022/12/29 11:55:37;;;;;;;8.90;2.30;;;;;;;9.45;70.12;99701.81;103194;1291;22547;-60
2022/12/29 11:58:16;;;;;;;14.80;3.30;;;;;;;9.46;70.35;99704.80;102936;1298;22475;-59
2022/12/29 12:00:50;;;;;;;9.00;2.10;;;;;;;9.47;70.41;99698.85;103051;1298;24446;-58
2022/12/29 12:03:24;;;;;;;13.20;2.70;;;;;;;9.47;70.18;99697.67;103236;1275;25315;-58
2022/12/29 12:06:01;;;;;;;13.70;2.50;;;;;;;9.48;70.30;99702.14;103059;1282;22938;-59
2022/12/29 12:08:38;;;;;;;9.30;1.90;;;;;;;9.48;70.29;99698.45;103057;1303;22474;-60
2022/12/29 12:11:15;;;;;;;8.80;1.90;;;;;;;9.48;70.18;99696.08;103143;1282;22510;-58
2022/12/29 12:13:56;;;;;;;10.20;2.20;;;;;;;9.48;70.11;99695.60;103353;1282;24411;-59
2022/12/29 12:16:34;;;;;;;10.70;2.60;;;;;;;9.47;70.10;99693.48;103192;1281;24259;-59
2022/12/29 12:19:16;;;;;;;12.20;2.30;;;;;;;9.47;70.14;99695.09;103165;1304;26726;-59
2022/12/29 12:21:53;;;;;;;11.20;2.70;;;;;;;9.48;70.28;99690.14;103132;1306;22486;-58
2022/12/29 12:24:40;;;;;;;13.50;2.60;;;;;;;9.47;70.20;99689.93;103119;1305;22465;-59
2022/12/29 12:27:19;;;;;;;9.10;1.80;;;;;;;9.45;70.17;99684.55;103139;1282;25033;-60
2022/12/29 12:30:00;;;;;;;12.20;1.80;;;;;;;9.44;70.48;99684.67;103227;1281;24353;-59
2022/12/29 12:32:43;;;;;;;13.70;3.10;;;;;;;9.42;70.51;99681.45;103212;1289;22968;-57
2022/12/29 12:35:22;;;;;;;9.60;1.90;;;;;;;9.40;70.58;99679.45;103129;1292;22464;-59
2022/12/29 12:38:08;;;;;;;14.50;2.60;;;;;;;9.36;70.63;99675.27;103012;1281;22591;-58
2022/12/29 12:40:58;;;;;;;12.20;1.90;;;;;;;9.32;70.81;99677.25;103126;1282;25252;-61
2022/12/29 12:43:44;;;;;;;11.10;1.90;;;;;;;9.28;70.82;99675.41;103101;1306;22418;-60
2022/12/29 12:46:29;;;;;;;8.00;1.90;;;;;;;9.25;70.94;99671.73;103231;1290;25447;-59
2022/12/29 12:49:21;;;;;;;16.50;3.10;;;;;;;9.21;70.98;99664.77;103079;1298;24408;-60
2022/12/29 12:52:02;;;;;;;8.50;2.00;;;;;;;9.16;71.05;99665.10;103319;1306;25537;-59
2022/12/29 12:54:50;;;;;;;9.90;2.30;;;;;;;9.14;71.23;99670.68;103158;1282;22785;-58